sensor_id;sensor_type;location;lat;lon;timestamp;temperature;humidity
71142;DHT22;58808;59.366;17.970;2023-03-01T00:01:24;4.20;93.10
71142;DHT22;58808;59.366;17.970;2023-03-01T00:03:51;4.10;93.20
71142;DHT22;58808;59.366;17.970;2023-03-01T00:06:17;4.10;93.60
71142;DHT22;58808;59.366;17.970;2023-03-01T00:08:43;4.10;93.60
71142;DHT22;58808;59.366;17.970;2023-03-01T00:11:16;4.10;93.40
71142;DHT22;58808;59.366;17.970;2023-03-01T00:13:46;4.00;93.70
71142;DHT22;58808;59.366;17.970;2023-03-01T00:16:15;4.00;93.80
71142;DHT22;58808;59.366;17.970;2023-03-01T00:18:41;3.90;94.10
71142;DHT22;58808;59.366;17.970;2023-03-01T00:21:07;3.80;94.40
71142;DHT22;58808;59.366;17.970;2023-03-01T00:23:37;3.80;94.70
71142;DHT22;58808;59.366;17.970;2023-03-01T00:26:07;3.80;94.80
71142;DHT22;58808;59.366;17.970;2023-03-01T00:28:34;3.80;95.10
71142;DHT22;58808;59.366;17.970;2023-03-01T00:31:11;3.80;95.10
71142;DHT22;58808;59.366;17.970;2023-03-01T00:33:37;3.70;95.20
71142;DHT22;58808;59.366;17.970;2023-03-01T00:36:03;3.70;95.30
71142;DHT22;58808;59.366;17.970;2023-03-01T00:38:30;3.70;95.20
71142;DHT22;58808;59.366;17.970;2023-03-01T00:41:05;3.60;95.60
71142;DHT22;58808;59.366;17.970;2023-03-01T00:43:31;3.60;95.60
71142;DHT22;58808;59.366;17.970;2023-03-01T00:46:03;3.60;95.40
71142;DHT22;58808;59.366;17.970;2023-03-01T00:48:29;3.70;95.50
71142;DHT22;58808;59.366;17.970;2023-03-01T00:50:55;3.70;95.50
71142;DHT22;58808;59.366;17.970;2023-03-01T00:53:21;3.70;95.50
71142;DHT22;58808;59.366;17.970;2023-03-01T00:55:47;3.60;95.40
71142;DHT22;58808;59.366;17.970;2023-03-01T00:58:12;3.60;95.40
71142;DHT22;58808;59.366;17.970;2023-03-01T01:00:38;3.60;95.70
71142;DHT22;58808;59.366;17.970;2023-03-01T01:03:04;3.60;95.80
71142;DHT22;58808;59.366;17.970;2023-03-01T01:05:29;3.60;96.20
71142;DHT22;58808;59.366;17.970;2023-03-01T01:07:56;3.60;96.30
71142;DHT22;58808;59.366;17.970;2023-03-01T01:10:21;3.60;96.40
71142;DHT22;58808;59.366;17.970;2023-03-01T01:12:47;3.50;96.80
71142;DHT22;58808;59.366;17.970;2023-03-01T01:15:13;3.50;97.10
71142;DHT22;58808;59.366;17.970;2023-03-01T01:17:42;3.50;97.30
71142;DHT22;58808;59.366;17.970;2023-03-01T01:20:08;3.50;97.10
71142;DHT22;58808;59.366;17.970;2023-03-01T01:22:34;3.50;97.60
71142;DHT22;58808;59.366;17.970;2023-03-01T01:25:00;3.50;97.60
71142;DHT22;58808;59.366;17.970;2023-03-01T01:27:25;3.40;97.80
71142;DHT22;58808;59.366;17.970;2023-03-01T01:29:53;3.40;98.30
71142;DHT22;58808;59.366;17.970;2023-03-01T01:32:18;3.40;98.60
71142;DHT22;58808;59.366;17.970;2023-03-01T01:34:44;3.30;98.60
71142;DHT22;58808;59.366;17.970;2023-03-01T01:37:11;3.30;99.00
71142;DHT22;58808;59.366;17.970;2023-03-01T01:39:37;3.20;99.10
71142;DHT22;58808;59.366;17.970;2023-03-01T01:42:03;3.20;99.40
71142;DHT22;58808;59.366;17.970;2023-03-01T01:44:29;3.20;99.90
71142;DHT22;58808;59.366;17.970;2023-03-01T01:54:40;3.00;99.90
71142;DHT22;58808;59.366;17.970;2023-03-01T01:57:28;3.00;99.90
71142;DHT22;58808;59.366;17.970;2023-03-01T01:59:59;3.00;99.90
71142;DHT22;58808;59.366;17.970;2023-03-01T02:02:26;3.10;99.90
71142;DHT22;58808;59.366;17.970;2023-03-01T02:05:00;3.10;99.90
71142;DHT22;58808;59.366;17.970;2023-03-01T02:07:29;3.10;99.90
71142;DHT22;58808;59.366;17.970;2023-03-01T02:09:55;3.10;99.90
71142;DHT22;58808;59.366;17.970;2023-03-01T02:12:24;3.00;99.90
71142;DHT22;58808;59.366;17.970;2023-03-01T02:14:51;3.00;99.90
71142;DHT22;58808;59.366;17.970;2023-03-01T02:17:17;2.90;99.90
71142;DHT22;58808;59.366;17.970;2023-03-01T02:22:34;2.80;99.90
71142;DHT22;58808;59.366;17.970;2023-03-01T02:30:19;2.90;99.90
71142;DHT22;58808;59.366;17.970;2023-03-01T02:32:46;2.90;99.90
71142;DHT22;58808;59.366;17.970;2023-03-01T02:35:14;2.90;99.90
71142;DHT22;58808;59.366;17.970;2023-03-01T02:37:41;2.90;99.90
71142;DHT22;58808;59.366;17.970;2023-03-01T02:40:15;2.80;99.90
71142;DHT22;58808;59.366;17.970;2023-03-01T02:42:45;2.80;99.90
71142;DHT22;58808;59.366;17.970;2023-03-01T02:45:12;2.80;99.90
71142;DHT22;58808;59.366;17.970;2023-03-01T02:47:38;2.70;99.90
71142;DHT22;58808;59.366;17.970;2023-03-01T02:50:22;2.60;99.90
71142;DHT22;58808;59.366;17.970;2023-03-01T02:53:01;2.50;99.90
71142;DHT22;58808;59.366;17.970;2023-03-01T02:55:30;2.50;99.90
71142;DHT22;58808;59.366;17.970;2023-03-01T02:57:56;2.50;99.90
71142;DHT22;58808;59.366;17.970;2023-03-01T03:00:30;2.50;99.90
71142;DHT22;58808;59.366;17.970;2023-03-01T03:02:58;2.50;99.90
71142;DHT22;58808;59.366;17.970;2023-03-01T03:05:27;2.50;99.90
71142;DHT22;58808;59.366;17.970;2023-03-01T03:07:54;2.40;99.90
71142;DHT22;58808;59.366;17.970;2023-03-01T03:10:24;2.40;99.90
71142;DHT22;58808;59.366;17.970;2023-03-01T03:12:59;2.40;99.90
71142;DHT22;58808;59.366;17.970;2023-03-01T03:15:25;2.40;99.90
71142;DHT22;58808;59.366;17.970;2023-03-01T03:17:52;2.40;99.90
71142;DHT22;58808;59.366;17.970;2023-03-01T03:20:21;2.30;99.90
71142;DHT22;58808;59.366;17.970;2023-03-01T03:22:49;2.20;99.90
71142;DHT22;58808;59.366;17.970;2023-03-01T03:25:16;2.20;99.90
71142;DHT22;58808;59.366;17.970;2023-03-01T03:27:44;2.20;99.90
71142;DHT22;58808;59.366;17.970;2023-03-01T03:30:14;2.20;99.90
71142;DHT22;58808;59.366;17.970;2023-03-01T03:32:41;2.20;99.90
71142;DHT22;58808;59.366;17.970;2023-03-01T03:35:08;2.20;99.90
71142;DHT22;58808;59.366;17.970;2023-03-01T03:37:41;2.00;99.90
71142;DHT22;58808;59.366;17.970;2023-03-01T03:40:26;2.10;99.90
71142;DHT22;58808;59.366;17.970;2023-03-01T03:42:52;2.10;99.90
71142;DHT22;58808;59.366;17.970;2023-03-01T03:45:18;1.90;99.90
71142;DHT22;58808;59.366;17.970;2023-03-01T03:47:44;2.00;99.90
71142;DHT22;58808;59.366;17.970;2023-03-01T03:50:12;1.90;99.90
71142;DHT22;58808;59.366;17.970;2023-03-01T03:52:38;1.90;99.90
71142;DHT22;58808;59.366;17.970;2023-03-01T03:55:05;1.90;99.90
71142;DHT22;58808;59.366;17.970;2023-03-01T03:57:40;2.00;99.90
71142;DHT22;58808;59.366;17.970;2023-03-01T04:00:11;2.00;99.90
71142;DHT22;58808;59.366;17.970;2023-03-01T04:02:40;2.10;99.90
71142;DHT22;58808;59.366;17.970;2023-03-01T04:05:07;2.10;99.90
71142;DHT22;58808;59.366;17.970;2023-03-01T04:07:34;2.10;99.90
71142;DHT22;58808;59.366;17.970;2023-03-01T04:10:02;2.10;99.90
71142;DHT22;58808;59.366;17.970;2023-03-01T04:12:28;2.00;99.90
71142;DHT22;58808;59.366;17.970;2023-03-01T04:14:53;2.00;99.90
71142;DHT22;58808;59.366;17.970;2023-03-01T04:17:19;1.90;99.90
71142;DHT22;58808;59.366;17.970;2023-03-01T04:19:45;1.90;99.90
71142;DHT22;58808;59.366;17.970;2023-03-01T04:22:14;1.80;99.90
71142;DHT22;58808;59.366;17.970;2023-03-01T04:24:42;1.80;99.90
71142;DHT22;58808;59.366;17.970;2023-03-01T04:27:09;1.80;99.90
71142;DHT22;58808;59.366;17.970;2023-03-01T04:29:34;1.80;99.90
71142;DHT22;58808;59.366;17.970;2023-03-01T04:32:00;1.80;99.90
71142;DHT22;58808;59.366;17.970;2023-03-01T04:34:26;1.70;99.90
71142;DHT22;58808;59.366;17.970;2023-03-01T04:36:52;1.70;99.90
71142;DHT22;58808;59.366;17.970;2023-03-01T04:39:18;1.70;99.90
71142;DHT22;58808;59.366;17.970;2023-03-01T04:41:44;1.70;99.90
71142;DHT22;58808;59.366;17.970;2023-03-01T04:44:09;1.60;99.90
71142;DHT22;58808;59.366;17.970;2023-03-01T04:46:36;1.60;99.90
71142;DHT22;58808;59.366;17.970;2023-03-01T04:49:02;1.70;99.90
71142;DHT22;58808;59.366;17.970;2023-03-01T04:51:28;1.70;99.90
71142;DHT22;58808;59.366;17.970;2023-03-01T04:53:54;1.70;99.90
71142;DHT22;58808;59.366;17.970;2023-03-01T04:56:20;1.70;99.90
71142;DHT22;58808;59.366;17.970;2023-03-01T04:58:48;1.70;99.90
71142;DHT22;58808;59.366;17.970;2023-03-01T05:01:16;1.60;99.90
71142;DHT22;58808;59.366;17.970;2023-03-01T05:03:48;1.60;99.90
71142;DHT22;58808;59.366;17.970;2023-03-01T05:06:14;1.60;99.90
71142;DHT22;58808;59.366;17.970;2023-03-01T05:08:41;1.50;99.90
71142;DHT22;58808;59.366;17.970;2023-03-01T05:11:07;1.40;99.90
71142;DHT22;58808;59.366;17.970;2023-03-01T05:13:35;1.20;99.90
71142;DHT22;58808;59.366;17.970;2023-03-01T05:16:02;1.10;99.90
71142;DHT22;58808;59.366;17.970;2023-03-01T05:18:29;1.10;99.90
71142;DHT22;58808;59.366;17.970;2023-03-01T05:21:01;1.00;99.90
71142;DHT22;58808;59.366;17.970;2023-03-01T05:23:30;1.10;99.90
71142;DHT22;58808;59.366;17.970;2023-03-01T05:25:58;1.00;99.90
71142;DHT22;58808;59.366;17.970;2023-03-01T05:28:25;1.10;99.90
71142;DHT22;58808;59.366;17.970;2023-03-01T05:30:51;1.20;99.90
71142;DHT22;58808;59.366;17.970;2023-03-01T05:33:17;1.20;99.90
71142;DHT22;58808;59.366;17.970;2023-03-01T05:35:45;1.30;99.90
71142;DHT22;58808;59.366;17.970;2023-03-01T05:38:14;1.30;99.90
71142;DHT22;58808;59.366;17.970;2023-03-01T05:40:41;1.20;99.90
71142;DHT22;58808;59.366;17.970;2023-03-01T05:43:06;1.30;99.90
71142;DHT22;58808;59.366;17.970;2023-03-01T05:45:32;1.30;99.90
71142;DHT22;58808;59.366;17.970;2023-03-01T05:47:58;1.30;99.90
71142;DHT22;58808;59.366;17.970;2023-03-01T05:50:34;1.30;99.90
71142;DHT22;58808;59.366;17.970;2023-03-01T05:53:05;1.30;99.90
71142;DHT22;58808;59.366;17.970;2023-03-01T05:55:33;1.30;99.90
71142;DHT22;58808;59.366;17.970;2023-03-01T05:58:04;1.20;99.90
71142;DHT22;58808;59.366;17.970;2023-03-01T06:00:31;1.20;99.90
71142;DHT22;58808;59.366;17.970;2023-03-01T06:02:57;1.20;99.90
71142;DHT22;58808;59.366;17.970;2023-03-01T06:05:23;1.10;99.90
71142;DHT22;58808;59.366;17.970;2023-03-01T06:07:50;1.10;99.90
71142;DHT22;58808;59.366;17.970;2023-03-01T06:10:17;1.10;99.90
71142;DHT22;58808;59.366;17.970;2023-03-01T06:12:43;1.10;99.90
71142;DHT22;58808;59.366;17.970;2023-03-01T06:15:11;1.20;99.90
71142;DHT22;58808;59.366;17.970;2023-03-01T06:17:38;1.20;99.90
71142;DHT22;58808;59.366;17.970;2023-03-01T06:20:09;1.20;99.90
71142;DHT22;58808;59.366;17.970;2023-03-01T06:22:35;1.20;99.90
71142;DHT22;58808;59.366;17.970;2023-03-01T06:25:01;1.20;99.90
71142;DHT22;58808;59.366;17.970;2023-03-01T06:27:27;1.20;99.90
71142;DHT22;58808;59.366;17.970;2023-03-01T06:29:53;1.20;99.90
71142;DHT22;58808;59.366;17.970;2023-03-01T06:32:19;1.20;99.90
71142;DHT22;58808;59.366;17.970;2023-03-01T06:34:45;1.20;99.90
71142;DHT22;58808;59.366;17.970;2023-03-01T06:37:11;1.00;99.90
71142;DHT22;58808;59.366;17.970;2023-03-01T06:39:36;1.10;99.90
71142;DHT22;58808;59.366;17.970;2023-03-01T06:42:02;1.10;99.90
71142;DHT22;58808;59.366;17.970;2023-03-01T06:44:28;1.10;99.90
71142;DHT22;58808;59.366;17.970;2023-03-01T06:46:54;1.20;99.90
71142;DHT22;58808;59.366;17.970;2023-03-01T06:49:19;1.20;99.90
71142;DHT22;58808;59.366;17.970;2023-03-01T06:51:46;1.20;99.90
71142;DHT22;58808;59.366;17.970;2023-03-01T06:54:12;1.20;99.90
71142;DHT22;58808;59.366;17.970;2023-03-01T06:56:38;1.20;99.90
71142;DHT22;58808;59.366;17.970;2023-03-01T06:59:04;1.20;99.90
71142;DHT22;58808;59.366;17.970;2023-03-01T07:01:30;1.20;99.90
71142;DHT22;58808;59.366;17.970;2023-03-01T07:03:56;1.30;99.90
71142;DHT22;58808;59.366;17.970;2023-03-01T07:06:23;1.30;99.90
71142;DHT22;58808;59.366;17.970;2023-03-01T07:08:49;1.40;99.90
71142;DHT22;58808;59.366;17.970;2023-03-01T07:11:15;1.40;99.90
71142;DHT22;58808;59.366;17.970;2023-03-01T07:13:41;1.40;99.90
71142;DHT22;58808;59.366;17.970;2023-03-01T07:16:07;1.40;99.90
71142;DHT22;58808;59.366;17.970;2023-03-01T07:18:33;1.50;99.90
71142;DHT22;58808;59.366;17.970;2023-03-01T07:21:06;1.50;99.90
71142;DHT22;58808;59.366;17.970;2023-03-01T07:23:33;1.50;99.90
71142;DHT22;58808;59.366;17.970;2023-03-01T07:25:59;1.50;99.90
71142;DHT22;58808;59.366;17.970;2023-03-01T07:28:25;1.60;99.90
71142;DHT22;58808;59.366;17.970;2023-03-01T07:30:51;1.60;99.90
71142;DHT22;58808;59.366;17.970;2023-03-01T07:33:17;1.70;99.90
71142;DHT22;58808;59.366;17.970;2023-03-01T07:35:43;1.90;99.90
71142;DHT22;58808;59.366;17.970;2023-03-01T07:38:09;2.10;99.90
71142;DHT22;58808;59.366;17.970;2023-03-01T07:40:35;2.20;99.90
71142;DHT22;58808;59.366;17.970;2023-03-01T07:43:01;2.30;99.90
71142;DHT22;58808;59.366;17.970;2023-03-01T07:45:27;2.30;99.90
71142;DHT22;58808;59.366;17.970;2023-03-01T07:47:54;2.40;99.90
71142;DHT22;58808;59.366;17.970;2023-03-01T07:50:21;2.50;99.90
71142;DHT22;58808;59.366;17.970;2023-03-01T07:52:48;2.50;99.90
71142;DHT22;58808;59.366;17.970;2023-03-01T07:55:15;2.60;99.90
71142;DHT22;58808;59.366;17.970;2023-03-01T07:57:41;2.60;99.90
71142;DHT22;58808;59.366;17.970;2023-03-01T08:00:09;2.70;99.90
71142;DHT22;58808;59.366;17.970;2023-03-01T08:02:35;2.80;99.90
71142;DHT22;58808;59.366;17.970;2023-03-01T08:05:01;2.90;99.90
71142;DHT22;58808;59.366;17.970;2023-03-01T08:07:26;2.90;99.90
71142;DHT22;58808;59.366;17.970;2023-03-01T08:09:52;3.00;99.90
71142;DHT22;58808;59.366;17.970;2023-03-01T08:12:18;3.20;99.90
71142;DHT22;58808;59.366;17.970;2023-03-01T08:14:43;3.20;99.90
71142;DHT22;58808;59.366;17.970;2023-03-01T08:17:09;3.30;99.90
71142;DHT22;58808;59.366;17.970;2023-03-01T08:19:35;3.40;99.90
71142;DHT22;58808;59.366;17.970;2023-03-01T08:22:02;3.50;99.90
71142;DHT22;58808;59.366;17.970;2023-03-01T08:24:28;3.50;99.90
71142;DHT22;58808;59.366;17.970;2023-03-01T08:26:54;3.60;99.90
71142;DHT22;58808;59.366;17.970;2023-03-01T08:29:20;3.70;99.90
71142;DHT22;58808;59.366;17.970;2023-03-01T08:31:46;3.80;99.90
71142;DHT22;58808;59.366;17.970;2023-03-01T08:34:14;3.90;99.90
71142;DHT22;58808;59.366;17.970;2023-03-01T08:36:42;4.00;99.90
71142;DHT22;58808;59.366;17.970;2023-03-01T08:39:10;4.10;99.90
71142;DHT22;58808;59.366;17.970;2023-03-01T08:41:37;4.10;99.90
71142;DHT22;58808;59.366;17.970;2023-03-01T08:44:03;4.20;99.90
71142;DHT22;58808;59.366;17.970;2023-03-01T08:46:32;4.30;99.90
71142;DHT22;58808;59.366;17.970;2023-03-01T08:48:58;4.30;99.90
71142;DHT22;58808;59.366;17.970;2023-03-01T08:51:25;4.30;99.40
71142;DHT22;58808;59.366;17.970;2023-03-01T08:53:51;4.40;99.20
71142;DHT22;58808;59.366;17.970;2023-03-01T08:56:18;4.50;99.10
71142;DHT22;58808;59.366;17.970;2023-03-01T08:58:45;4.70;98.60
71142;DHT22;58808;59.366;17.970;2023-03-01T09:01:14;4.80;97.70
71142;DHT22;58808;59.366;17.970;2023-03-01T09:03:40;4.90;97.00
71142;DHT22;58808;59.366;17.970;2023-03-01T09:06:07;5.00;97.10
71142;DHT22;58808;59.366;17.970;2023-03-01T09:08:37;5.10;95.50
71142;DHT22;58808;59.366;17.970;2023-03-01T09:11:04;5.20;96.00
71142;DHT22;58808;59.366;17.970;2023-03-01T09:13:31;5.30;93.50
71142;DHT22;58808;59.366;17.970;2023-03-01T09:16:02;5.30;93.10
71142;DHT22;58808;59.366;17.970;2023-03-01T09:18:28;5.30;93.60
71142;DHT22;58808;59.366;17.970;2023-03-01T09:21:11;5.30;92.60
71142;DHT22;58808;59.366;17.970;2023-03-01T09:23:42;5.30;92.00
71142;DHT22;58808;59.366;17.970;2023-03-01T09:26:20;5.30;91.80
71142;DHT22;58808;59.366;17.970;2023-03-01T09:28:48;5.30;91.70
71142;DHT22;58808;59.366;17.970;2023-03-01T09:31:16;5.20;92.00
71142;DHT22;58808;59.366;17.970;2023-03-01T09:33:45;5.30;93.00
71142;DHT22;58808;59.366;17.970;2023-03-01T09:36:13;5.40;91.70
71142;DHT22;58808;59.366;17.970;2023-03-01T09:38:39;5.50;91.90
71142;DHT22;58808;59.366;17.970;2023-03-01T09:44:25;5.70;90.30
71142;DHT22;58808;59.366;17.970;2023-03-01T09:46:53;5.80;90.10
71142;DHT22;58808;59.366;17.970;2023-03-01T09:49:21;5.80;90.10
71142;DHT22;58808;59.366;17.970;2023-03-01T09:51:56;5.90;88.50
71142;DHT22;58808;59.366;17.970;2023-03-01T09:54:22;5.90;87.90
71142;DHT22;58808;59.366;17.970;2023-03-01T09:57:24;6.00;86.50
71142;DHT22;58808;59.366;17.970;2023-03-01T10:02:47;6.10;84.90
71142;DHT22;58808;59.366;17.970;2023-03-01T10:08:30;6.30;82.60
71142;DHT22;58808;59.366;17.970;2023-03-01T10:10:59;6.30;82.70
71142;DHT22;58808;59.366;17.970;2023-03-01T10:13:37;6.50;83.80
71142;DHT22;58808;59.366;17.970;2023-03-01T10:16:18;6.60;83.40
71142;DHT22;58808;59.366;17.970;2023-03-01T10:18:50;6.70;79.80
71142;DHT22;58808;59.366;17.970;2023-03-01T10:21:19;6.70;79.80
71142;DHT22;58808;59.366;17.970;2023-03-01T10:23:46;6.70;78.30
71142;DHT22;58808;59.366;17.970;2023-03-01T10:29:07;6.80;77.20
71142;DHT22;58808;59.366;17.970;2023-03-01T10:31:38;6.90;76.70
71142;DHT22;58808;59.366;17.970;2023-03-01T10:36:42;6.90;75.50
71142;DHT22;58808;59.366;17.970;2023-03-01T10:39:18;6.90;75.20
71142;DHT22;58808;59.366;17.970;2023-03-01T10:47:05;7.10;74.80
71142;DHT22;58808;59.366;17.970;2023-03-01T10:49:31;7.20;74.70
71142;DHT22;58808;59.366;17.970;2023-03-01T10:52:11;7.20;73.40
71142;DHT22;58808;59.366;17.970;2023-03-01T10:54:58;7.30;73.40
71142;DHT22;58808;59.366;17.970;2023-03-01T10:57:37;7.30;72.20
71142;DHT22;58808;59.366;17.970;2023-03-01T11:00:20;7.40;71.50
71142;DHT22;58808;59.366;17.970;2023-03-01T11:03:02;7.40;72.30
71142;DHT22;58808;59.366;17.970;2023-03-01T11:05:29;7.50;73.00
71142;DHT22;58808;59.366;17.970;2023-03-01T11:08:00;7.60;72.00
71142;DHT22;58808;59.366;17.970;2023-03-01T11:10:32;7.70;69.70
71142;DHT22;58808;59.366;17.970;2023-03-01T11:13:18;7.80;69.40
71142;DHT22;58808;59.366;17.970;2023-03-01T11:16:03;7.80;69.20
71142;DHT22;58808;59.366;17.970;2023-03-01T11:18:30;7.90;68.60
71142;DHT22;58808;59.366;17.970;2023-03-01T11:20:56;8.00;68.40
71142;DHT22;58808;59.366;17.970;2023-03-01T11:23:23;8.00;67.90
71142;DHT22;58808;59.366;17.970;2023-03-01T11:25:58;8.10;69.30
71142;DHT22;58808;59.366;17.970;2023-03-01T11:28:26;8.30;68.90
71142;DHT22;58808;59.366;17.970;2023-03-01T11:31:06;8.40;66.20
71142;DHT22;58808;59.366;17.970;2023-03-01T11:36:24;8.40;65.40
71142;DHT22;58808;59.366;17.970;2023-03-01T11:38:53;8.30;65.30
71142;DHT22;58808;59.366;17.970;2023-03-01T11:41:32;8.40;65.50
71142;DHT22;58808;59.366;17.970;2023-03-01T11:44:02;8.30;64.90
71142;DHT22;58808;59.366;17.970;2023-03-01T11:52:15;8.60;66.90
71142;DHT22;58808;59.366;17.970;2023-03-01T12:00:48;9.10;63.40
71142;DHT22;58808;59.366;17.970;2023-03-01T12:12:22;9.60;60.20
71142;DHT22;58808;59.366;17.970;2023-03-01T12:20:20;9.60;59.70
71142;DHT22;58808;59.366;17.970;2023-03-01T12:23:14;9.50;59.80
71142;DHT22;58808;59.366;17.970;2023-03-01T12:28:55;9.70;61.60
71142;DHT22;58808;59.366;17.970;2023-03-01T12:31:51;9.90;59.50
71142;DHT22;58808;59.366;17.970;2023-03-01T12:45:57;9.80;58.40
71142;DHT22;58808;59.366;17.970;2023-03-01T12:50:52;9.90;58.50
71142;DHT22;58808;59.366;17.970;2023-03-01T12:53:41;9.90;57.80
71142;DHT22;58808;59.366;17.970;2023-03-01T12:56:21;10.00;58.30
71142;DHT22;58808;59.366;17.970;2023-03-01T13:10:03;10.30;57.00
71142;DHT22;58808;59.366;17.970;2023-03-01T13:17:48;10.50;56.00
71142;DHT22;58808;59.366;17.970;2023-03-01T13:20:18;10.60;55.80
71142;DHT22;58808;59.366;17.970;2023-03-01T13:22:46;10.50;55.30
71142;DHT22;58808;59.366;17.970;2023-03-01T13:25:19;10.40;55.30
71142;DHT22;58808;59.366;17.970;2023-03-01T13:27:46;10.40;55.60
71142;DHT22;58808;59.366;17.970;2023-03-01T13:33:38;10.40;55.40
71142;DHT22;58808;59.366;17.970;2023-03-01T13:36:07;10.50;55.90
71142;DHT22;58808;59.366;17.970;2023-03-01T13:46:38;10.80;54.80
71142;DHT22;58808;59.366;17.970;2023-03-01T13:49:04;10.80;54.60
71142;DHT22;58808;59.366;17.970;2023-03-01T13:51:30;10.80;54.60
71142;DHT22;58808;59.366;17.970;2023-03-01T13:53:57;10.90;54.40
71142;DHT22;58808;59.366;17.970;2023-03-01T13:56:24;10.90;54.50
71142;DHT22;58808;59.366;17.970;2023-03-01T14:01:22;10.90;55.10
71142;DHT22;58808;59.366;17.970;2023-03-01T14:03:48;11.00;54.40
71142;DHT22;58808;59.366;17.970;2023-03-01T14:06:32;10.90;54.00
71142;DHT22;58808;59.366;17.970;2023-03-01T14:09:17;10.90;54.10
71142;DHT22;58808;59.366;17.970;2023-03-01T14:17:35;10.80;54.60
71142;DHT22;58808;59.366;17.970;2023-03-01T14:20:20;10.90;55.10
71142;DHT22;58808;59.366;17.970;2023-03-01T14:22:49;10.90;53.70
71142;DHT22;58808;59.366;17.970;2023-03-01T14:33:59;10.20;54.80
71142;DHT22;58808;59.366;17.970;2023-03-01T14:36:29;10.00;55.40
71142;DHT22;58808;59.366;17.970;2023-03-01T14:38:55;9.90;56.00
71142;DHT22;58808;59.366;17.970;2023-03-01T14:41:26;9.70;56.10
71142;DHT22;58808;59.366;17.970;2023-03-01T14:43:58;9.70;56.50
71142;DHT22;58808;59.366;17.970;2023-03-01T14:46:28;9.60;57.00
71142;DHT22;58808;59.366;17.970;2023-03-01T14:49:19;9.50;57.10
71142;DHT22;58808;59.366;17.970;2023-03-01T14:52:04;9.50;57.20
71142;DHT22;58808;59.366;17.970;2023-03-01T14:57:18;9.40;57.60
71142;DHT22;58808;59.366;17.970;2023-03-01T14:59:45;9.40;57.90
71142;DHT22;58808;59.366;17.970;2023-03-01T15:02:17;9.40;57.80
71142;DHT22;58808;59.366;17.970;2023-03-01T15:04:50;9.40;57.90
71142;DHT22;58808;59.366;17.970;2023-03-01T15:07:17;9.30;57.80
71142;DHT22;58808;59.366;17.970;2023-03-01T15:09:43;9.30;57.90
71142;DHT22;58808;59.366;17.970;2023-03-01T15:12:45;9.30;57.60
71142;DHT22;58808;59.366;17.970;2023-03-01T15:18:00;9.20;57.90
71142;DHT22;58808;59.366;17.970;2023-03-01T15:20:28;9.20;57.60
71142;DHT22;58808;59.366;17.970;2023-03-01T15:22:56;9.20;58.20
71142;DHT22;58808;59.366;17.970;2023-03-01T15:25:27;9.20;58.10
71142;DHT22;58808;59.366;17.970;2023-03-01T15:27:56;9.10;58.10
71142;DHT22;58808;59.366;17.970;2023-03-01T15:30:23;9.10;59.10
71142;DHT22;58808;59.366;17.970;2023-03-01T15:33:20;9.10;58.20
71142;DHT22;58808;59.366;17.970;2023-03-01T15:35:54;9.10;58.40
71142;DHT22;58808;59.366;17.970;2023-03-01T15:41:05;9.10;58.30
71142;DHT22;58808;59.366;17.970;2023-03-01T15:43:46;9.00;58.10
71142;DHT22;58808;59.366;17.970;2023-03-01T15:46:21;9.00;58.10
71142;DHT22;58808;59.366;17.970;2023-03-01T15:49:04;9.00;58.40
71142;DHT22;58808;59.366;17.970;2023-03-01T15:51:36;9.00;59.00
71142;DHT22;58808;59.366;17.970;2023-03-01T15:54:19;8.90;59.20
71142;DHT22;58808;59.366;17.970;2023-03-01T15:56:45;9.00;59.20
71142;DHT22;58808;59.366;17.970;2023-03-01T15:59:12;8.90;59.00
71142;DHT22;58808;59.366;17.970;2023-03-01T16:01:41;8.90;59.20
71142;DHT22;58808;59.366;17.970;2023-03-01T16:04:10;8.80;59.10
71142;DHT22;58808;59.366;17.970;2023-03-01T16:06:38;8.80;59.20
71142;DHT22;58808;59.366;17.970;2023-03-01T16:09:05;8.80;59.30
71142;DHT22;58808;59.366;17.970;2023-03-01T16:11:30;8.70;59.50
71142;DHT22;58808;59.366;17.970;2023-03-01T16:13:58;8.70;59.40
71142;DHT22;58808;59.366;17.970;2023-03-01T16:16:23;8.70;59.80
71142;DHT22;58808;59.366;17.970;2023-03-01T16:18:49;8.70;59.80
71142;DHT22;58808;59.366;17.970;2023-03-01T16:21:21;8.70;60.00
71142;DHT22;58808;59.366;17.970;2023-03-01T16:23:48;8.70;60.00
71142;DHT22;58808;59.366;17.970;2023-03-01T16:26:13;8.70;60.10
71142;DHT22;58808;59.366;17.970;2023-03-01T16:28:41;8.60;60.40
71142;DHT22;58808;59.366;17.970;2023-03-01T16:31:07;8.60;60.90
71142;DHT22;58808;59.366;17.970;2023-03-01T16:33:32;8.50;60.80
71142;DHT22;58808;59.366;17.970;2023-03-01T16:36:00;8.50;61.10
71142;DHT22;58808;59.366;17.970;2023-03-01T16:38:28;8.50;61.40
71142;DHT22;58808;59.366;17.970;2023-03-01T16:40:56;8.50;61.20
71142;DHT22;58808;59.366;17.970;2023-03-01T16:43:22;8.50;61.30
71142;DHT22;58808;59.366;17.970;2023-03-01T16:45:47;8.50;61.70
71142;DHT22;58808;59.366;17.970;2023-03-01T16:48:13;8.40;62.20
71142;DHT22;58808;59.366;17.970;2023-03-01T16:50:39;8.40;62.30
71142;DHT22;58808;59.366;17.970;2023-03-01T16:53:05;8.40;62.10
71142;DHT22;58808;59.366;17.970;2023-03-01T16:55:31;8.40;61.80
71142;DHT22;58808;59.366;17.970;2023-03-01T16:57:57;8.40;61.80
71142;DHT22;58808;59.366;17.970;2023-03-01T17:00:23;8.30;61.90
71142;DHT22;58808;59.366;17.970;2023-03-01T17:02:48;8.30;62.10
71142;DHT22;58808;59.366;17.970;2023-03-01T17:05:14;8.30;62.20
71142;DHT22;58808;59.366;17.970;2023-03-01T17:07:40;8.20;62.30
71142;DHT22;58808;59.366;17.970;2023-03-01T17:10:09;8.20;62.30
71142;DHT22;58808;59.366;17.970;2023-03-01T17:12:36;8.20;62.80
71142;DHT22;58808;59.366;17.970;2023-03-01T17:15:02;8.10;62.70
71142;DHT22;58808;59.366;17.970;2023-03-01T17:17:29;8.00;63.10
71142;DHT22;58808;59.366;17.970;2023-03-01T17:19:55;7.90;63.40
71142;DHT22;58808;59.366;17.970;2023-03-01T17:22:21;7.90;63.90
71142;DHT22;58808;59.366;17.970;2023-03-01T17:24:47;7.90;64.00
71142;DHT22;58808;59.366;17.970;2023-03-01T17:27:13;7.90;64.00
71142;DHT22;58808;59.366;17.970;2023-03-01T17:29:40;7.90;64.20
71142;DHT22;58808;59.366;17.970;2023-03-01T17:32:07;7.80;64.40
71142;DHT22;58808;59.366;17.970;2023-03-01T17:34:33;7.80;64.30
71142;DHT22;58808;59.366;17.970;2023-03-01T17:36:59;7.80;64.50
71142;DHT22;58808;59.366;17.970;2023-03-01T17:39:25;7.80;64.60
71142;DHT22;58808;59.366;17.970;2023-03-01T17:41:56;7.80;64.50
71142;DHT22;58808;59.366;17.970;2023-03-01T17:44:22;7.80;64.70
71142;DHT22;58808;59.366;17.970;2023-03-01T17:46:48;7.80;64.40
71142;DHT22;58808;59.366;17.970;2023-03-01T17:49:14;7.70;64.30
71142;DHT22;58808;59.366;17.970;2023-03-01T17:51:41;7.70;64.60
71142;DHT22;58808;59.366;17.970;2023-03-01T17:54:07;7.60;64.70
71142;DHT22;58808;59.366;17.970;2023-03-01T17:56:32;7.60;64.50